createdAt,value
2018-02-20T00:00:43.308Z,45.80
2018-02-20T00:01:43.308Z,47.20
2018-02-20T00:02:43.324Z,45.50
2018-02-20T00:03:43.320Z,44.90
2018-02-20T00:04:43.322Z,44.90
2018-02-20T00:05:43.312Z,44.90
2018-02-20T00:06:43.314Z,45.10
2018-02-20T00:07:43.324Z,45.60
2018-02-20T00:08:43.316Z,48.20
2018-02-20T00:09:43.313Z,47.60
2018-02-20T00:10:43.319Z,46.10
2018-02-20T00:11:43.315Z,46.70
2018-02-20T00:12:43.319Z,45.20
2018-02-20T00:13:43.325Z,45.70
2018-02-20T00:14:43.320Z,45.00
2018-02-20T00:15:43.324Z,44.70
2018-02-20T00:16:43.326Z,43.80
2018-02-20T00:17:43.323Z,43.50
2018-02-20T00:18:43.327Z,43.50
2018-02-20T00:19:43.328Z,44.20
2018-02-20T00:20:43.338Z,44.40
2018-02-20T00:21:43.329Z,43.30
2018-02-20T00:22:43.354Z,44.70
2018-02-20T00:23:44.187Z,43.30
2018-02-20T00:24:43.336Z,43.00
2018-02-20T00:25:43.332Z,44.20
2018-02-20T00:26:43.338Z,43.50
2018-02-20T00:27:43.334Z,44.50
2018-02-20T00:28:43.335Z,44.40
2018-02-20T00:29:43.337Z,43.60
2018-02-20T00:30:43.343Z,43.90
2018-02-20T00:31:43.343Z,44.80
2018-02-20T00:32:43.336Z,44.70
2018-02-20T00:33:43.343Z,45.60
2018-02-20T00:34:43.344Z,44.30
2018-02-20T00:35:43.340Z,44.30
2018-02-20T00:36:43.343Z,43.80
2018-02-20T00:37:43.348Z,44.10
2018-02-20T00:38:43.352Z,44.60
2018-02-20T00:39:43.347Z,43.60
2018-02-20T00:40:43.353Z,44.50
2018-02-20T00:41:43.357Z,45.00
2018-02-20T00:42:43.352Z,44.80
2018-02-20T00:43:43.355Z,45.90
2018-02-20T00:44:43.357Z,44.70
2018-02-20T00:45:43.365Z,45.00
2018-02-20T00:46:43.357Z,44.70
2018-02-20T00:47:43.358Z,45.30
2018-02-20T00:48:43.364Z,45.90
2018-02-20T00:49:43.358Z,46.70
2018-02-20T00:50:43.386Z,45.70
2018-02-20T00:51:43.366Z,47.30
2018-02-20T00:52:43.359Z,46.50
2018-02-20T00:53:43.364Z,45.90
2018-02-20T00:54:43.366Z,46.50
2018-02-20T00:55:43.366Z,45.70
2018-02-20T00:56:43.365Z,45.30
2018-02-20T00:57:43.368Z,46.80
2018-02-20T00:58:43.367Z,47.00
2018-02-20T00:59:43.367Z,45.60
2018-02-20T01:00:43.378Z,47.10
2018-02-20T01:01:43.371Z,46.20
2018-02-20T01:02:43.375Z,46.60
2018-02-20T01:03:43.372Z,45.10
2018-02-20T01:04:43.378Z,46.90
2018-02-20T01:05:43.377Z,46.00
2018-02-20T01:06:43.380Z,46.80
2018-02-20T01:07:43.382Z,46.60
2018-02-20T01:08:43.377Z,46.80
2018-02-20T01:09:43.384Z,45.60
2018-02-20T01:10:43.378Z,45.70
2018-02-20T01:11:43.381Z,45.60
2018-02-20T01:12:43.381Z,47.80
2018-02-20T01:13:43.384Z,46.50
2018-02-20T01:14:43.385Z,45.90
2018-02-20T01:15:43.383Z,46.80
2018-02-20T01:16:43.383Z,46.80
2018-02-20T01:17:43.389Z,46.70
2018-02-20T01:18:43.389Z,47.10
2018-02-20T01:19:43.389Z,47.30
2018-02-20T01:20:43.391Z,48.50
2018-02-20T01:21:43.392Z,46.40
2018-02-20T01:22:43.398Z,47.10
2018-02-20T01:23:43.392Z,47.20
2018-02-20T01:24:43.393Z,46.90
2018-02-20T01:25:43.391Z,46.10
2018-02-20T01:26:43.391Z,46.00
2018-02-20T01:27:43.397Z,45.30
2018-02-20T01:28:43.399Z,45.90
2018-02-20T01:29:43.393Z,46.10
2018-02-20T01:30:43.390Z,45.80
2018-02-20T01:31:43.423Z,46.10
2018-02-20T01:32:43.395Z,46.00
2018-02-20T01:33:43.398Z,46.60
2018-02-20T01:34:43.395Z,46.10
2018-02-20T01:35:43.404Z,46.40
2018-02-20T01:36:43.408Z,46.00
2018-02-20T01:37:43.400Z,47.00
2018-02-20T01:38:43.403Z,45.50
2018-02-20T01:39:43.396Z,47.10
2018-02-20T01:40:43.402Z,46.80
2018-02-20T01:41:43.404Z,45.60
2018-02-20T01:42:43.408Z,46.80
2018-02-20T01:43:43.405Z,45.50
2018-02-20T01:44:43.403Z,45.90
2018-02-20T01:45:43.408Z,46.40
2018-02-20T01:46:43.405Z,44.80
2018-02-20T01:47:43.403Z,45.90
2018-02-20T01:48:43.407Z,45.80
2018-02-20T01:49:43.412Z,46.80
2018-02-20T01:50:43.413Z,45.50
2018-02-20T01:51:43.421Z,47.40
2018-02-20T01:52:43.411Z,46.50
2018-02-20T01:53:43.417Z,46.30
2018-02-20T01:54:43.427Z,46.50
2018-02-20T01:55:43.414Z,45.60
2018-02-20T01:56:43.412Z,45.20
2018-02-20T01:57:43.415Z,46.70
2018-02-20T01:58:43.414Z,46.10
2018-02-20T01:59:43.416Z,45.00
2018-02-20T02:00:43.433Z,46.60
2018-02-20T02:01:43.417Z,47.10
2018-02-20T02:02:43.417Z,46.20
2018-02-20T02:03:43.422Z,45.60
2018-02-20T02:04:43.413Z,46.40
2018-02-20T02:05:43.419Z,45.20
2018-02-20T02:06:43.414Z,45.40
2018-02-20T02:07:43.422Z,45.80
2018-02-20T02:08:43.419Z,45.10
2018-02-20T02:09:43.428Z,46.00
2018-02-20T02:10:43.428Z,45.70
2018-02-20T02:11:43.433Z,45.80
2018-02-20T02:12:43.421Z,45.10
2018-02-20T02:13:43.420Z,45.40
2018-02-20T02:14:43.429Z,44.60
2018-02-20T02:15:43.424Z,45.50
2018-02-20T02:16:43.426Z,45.00
2018-02-20T02:17:43.461Z,45.10
2018-02-20T02:18:43.432Z,44.90
2018-02-20T02:19:43.431Z,46.00
2018-02-20T02:20:43.428Z,44.80
2018-02-20T02:21:43.466Z,45.30
2018-02-20T02:22:43.426Z,46.00
2018-02-20T02:23:43.425Z,46.00
2018-02-20T02:24:43.427Z,44.20
2018-02-20T02:25:43.427Z,45.10
2018-02-20T02:26:43.431Z,45.70
2018-02-20T02:27:43.425Z,46.60
2018-02-20T02:28:43.427Z,44.80
2018-02-20T02:29:43.427Z,45.50
2018-02-20T02:30:43.429Z,43.90
2018-02-20T02:31:43.433Z,45.80
2018-02-20T02:32:43.431Z,45.30
2018-02-20T02:33:43.431Z,45.90
2018-02-20T02:34:43.432Z,45.40
2018-02-20T02:35:43.434Z,44.40
2018-02-20T02:36:43.434Z,45.00
2018-02-20T02:37:43.443Z,45.10
2018-02-20T02:38:43.428Z,45.40
2018-02-20T02:39:43.438Z,44.90
2018-02-20T02:40:43.436Z,44.20
2018-02-20T02:41:43.435Z,44.90
2018-02-20T02:42:43.433Z,44.90
2018-02-20T02:43:43.441Z,44.30
2018-02-20T02:44:43.449Z,45.30
2018-02-20T02:45:43.435Z,46.50
2018-02-20T02:46:43.436Z,45.00
2018-02-20T02:47:43.442Z,45.00
2018-02-20T02:48:43.445Z,44.30
2018-02-20T02:49:43.438Z,44.30
2018-02-20T02:50:43.441Z,44.70
2018-02-20T02:51:43.436Z,44.80
2018-02-20T02:52:43.436Z,43.80
2018-02-20T02:53:43.442Z,45.60
2018-02-20T02:54:43.451Z,43.80
2018-02-20T02:55:43.439Z,45.70
2018-02-20T02:56:43.441Z,45.70
2018-02-20T02:57:43.443Z,46.20
2018-02-20T02:58:43.443Z,45.90
2018-02-20T02:59:43.444Z,44.20
2018-02-20T03:00:43.445Z,45.50
2018-02-20T03:01:43.472Z,45.90
2018-02-20T03:02:43.439Z,44.60
2018-02-20T03:03:43.445Z,45.30
2018-02-20T03:04:43.453Z,45.50
2018-02-20T03:05:43.449Z,44.80
2018-02-20T03:06:43.438Z,44.30
2018-02-20T03:07:43.448Z,45.40
2018-02-20T03:08:43.448Z,45.40
2018-02-20T03:09:43.448Z,44.80
2018-02-20T03:10:43.448Z,44.70
2018-02-20T03:11:43.445Z,44.80
2018-02-20T03:12:43.442Z,44.60
2018-02-20T03:13:43.449Z,44.80
2018-02-20T03:14:43.444Z,45.00
2018-02-20T03:15:43.447Z,45.60
2018-02-20T03:16:43.442Z,44.50
2018-02-20T03:17:43.452Z,45.50
2018-02-20T03:18:43.469Z,45.20
2018-02-20T03:19:43.446Z,45.70
2018-02-20T03:20:44.214Z,46.00
2018-02-20T03:21:43.452Z,44.80
2018-02-20T03:22:43.449Z,44.50
2018-02-20T03:23:43.444Z,46.20
2018-02-20T03:24:43.448Z,45.50
2018-02-20T03:25:43.444Z,44.60
2018-02-20T03:26:43.451Z,44.60
2018-02-20T03:27:43.442Z,44.70
2018-02-20T03:28:43.448Z,45.30
2018-02-20T03:29:43.446Z,44.20
2018-02-20T03:30:43.447Z,44.90
2018-02-20T03:31:43.451Z,45.00
2018-02-20T03:32:43.446Z,44.60
2018-02-20T03:33:43.451Z,44.50
2018-02-20T03:34:43.451Z,45.10
2018-02-20T03:35:43.448Z,45.90
2018-02-20T03:36:43.452Z,44.10
2018-02-20T03:37:43.456Z,43.50
2018-02-20T03:38:43.465Z,45.20
2018-02-20T03:39:43.457Z,45.00
2018-02-20T03:40:43.448Z,44.40
2018-02-20T03:41:43.452Z,44.70
2018-02-20T03:42:43.452Z,44.50
2018-02-20T03:43:43.459Z,43.40
2018-02-20T03:44:43.444Z,44.80
2018-02-20T03:45:43.456Z,44.40
2018-02-20T03:46:43.451Z,45.20
2018-02-20T03:47:43.450Z,45.50
2018-02-20T03:48:43.453Z,44.90
2018-02-20T03:49:43.458Z,45.20
2018-02-20T03:50:43.450Z,45.40
2018-02-20T03:51:43.450Z,45.00
2018-02-20T03:52:43.451Z,45.00
2018-02-20T03:53:43.452Z,45.80
2018-02-20T03:54:43.456Z,44.40
2018-02-20T03:55:43.454Z,45.10
2018-02-20T03:56:43.479Z,45.00
2018-02-20T03:57:43.457Z,45.70
2018-02-20T03:58:43.452Z,45.30
2018-02-20T03:59:43.449Z,45.20
2018-02-20T04:00:43.446Z,43.90
2018-02-20T04:01:43.451Z,44.40
2018-02-20T04:02:43.453Z,44.90
2018-02-20T04:03:43.450Z,43.80
2018-02-20T04:04:43.449Z,44.30
2018-02-20T04:05:43.464Z,46.40
2018-02-20T04:06:43.454Z,46.50
2018-02-20T04:07:43.447Z,46.90
2018-02-20T04:08:43.450Z,46.80
2018-02-20T04:09:43.462Z,45.50
2018-02-20T04:10:43.453Z,47.00
2018-02-20T04:11:43.448Z,47.40
2018-02-20T04:12:43.448Z,48.30
2018-02-20T04:13:43.455Z,44.50
2018-02-20T04:14:43.456Z,46.70
2018-02-20T04:15:43.446Z,45.70
2018-02-20T04:16:43.447Z,45.50
2018-02-20T04:17:43.453Z,45.60
2018-02-20T04:18:43.450Z,46.20
2018-02-20T04:19:43.459Z,46.50
2018-02-20T04:20:43.452Z,44.30
2018-02-20T04:21:43.467Z,44.90
2018-02-20T04:22:43.462Z,45.80
2018-02-20T04:23:43.454Z,44.00
2018-02-20T04:24:43.451Z,48.10
2018-02-20T04:25:43.446Z,46.30
2018-02-20T04:26:43.451Z,45.60
2018-02-20T04:27:43.454Z,45.50
2018-02-20T04:28:43.459Z,46.30
2018-02-20T04:29:43.449Z,44.80
2018-02-20T04:30:43.452Z,46.50
2018-02-20T04:31:43.453Z,45.50
2018-02-20T04:32:43.449Z,46.20
2018-02-20T04:33:43.450Z,45.50
2018-02-20T04:34:43.449Z,45.80
2018-02-20T04:35:43.455Z,45.60
2018-02-20T04:36:43.454Z,45.20
2018-02-20T04:37:43.458Z,44.90
2018-02-20T04:38:43.468Z,45.80
2018-02-20T04:39:43.452Z,44.10
2018-02-20T04:40:43.448Z,45.00
2018-02-20T04:41:43.459Z,44.40
2018-02-20T04:42:43.452Z,45.00
2018-02-20T04:43:43.450Z,44.60
2018-02-20T04:44:43.446Z,45.80
2018-02-20T04:45:43.451Z,45.70
2018-02-20T04:46:43.454Z,45.30
2018-02-20T04:47:43.446Z,46.00
2018-02-20T04:48:43.449Z,45.50
2018-02-20T04:49:43.452Z,45.40
2018-02-20T04:50:43.451Z,46.60
2018-02-20T04:51:43.445Z,46.50
2018-02-20T04:52:43.456Z,46.00
2018-02-20T04:53:43.451Z,45.10
2018-02-20T04:54:43.452Z,46.00
2018-02-20T04:55:43.456Z,45.40
2018-02-20T04:56:43.450Z,45.30
2018-02-20T04:57:43.474Z,46.30
2018-02-20T04:58:43.446Z,45.20
2018-02-20T04:59:43.451Z,46.40
2018-02-20T05:00:43.453Z,46.20
2018-02-20T05:01:43.447Z,45.30
2018-02-20T05:02:43.446Z,46.50
2018-02-20T05:03:43.453Z,45.90
2018-02-20T05:04:43.452Z,45.70
2018-02-20T05:05:43.450Z,46.50
2018-02-20T05:06:43.472Z,45.70
2018-02-20T05:07:43.459Z,44.90
2018-02-20T05:08:43.447Z,46.60
2018-02-20T05:09:43.454Z,45.80
2018-02-20T05:10:44.602Z,45.50
2018-02-20T05:11:45.231Z,45.10
2018-02-20T05:12:43.453Z,45.80
2018-02-20T05:13:43.452Z,45.00
2018-02-20T05:14:43.450Z,45.90
2018-02-20T05:15:43.462Z,45.50
2018-02-20T05:16:43.449Z,46.10
2018-02-20T05:17:43.451Z,46.00
2018-02-20T05:18:43.449Z,45.50
2018-02-20T05:19:43.443Z,44.50
2018-02-20T05:20:43.450Z,45.90
2018-02-20T05:21:43.449Z,45.10
2018-02-20T05:22:43.449Z,46.90
2018-02-20T05:23:43.471Z,46.30
2018-02-20T05:24:43.467Z,45.90
2018-02-20T05:25:43.445Z,46.80
2018-02-20T05:26:43.451Z,45.00
2018-02-20T05:27:43.453Z,45.20
2018-02-20T05:28:43.586Z,45.20
2018-02-20T05:29:43.497Z,45.60
2018-02-20T05:30:43.446Z,44.60
2018-02-20T05:31:43.449Z,45.50
2018-02-20T05:32:43.450Z,46.50
2018-02-20T05:33:43.445Z,47.00
2018-02-20T05:34:43.441Z,47.40
2018-02-20T05:35:43.449Z,46.80
2018-02-20T05:36:43.448Z,47.10
2018-02-20T05:37:43.447Z,47.20
2018-02-20T05:38:43.440Z,47.10
2018-02-20T05:39:43.451Z,46.70
2018-02-20T05:40:43.445Z,46.40
2018-02-20T05:41:45.945Z,47.00
2018-02-20T05:42:43.872Z,46.70
2018-02-20T05:43:43.849Z,47.00
2018-02-20T05:44:43.441Z,48.40
2018-02-20T05:45:43.446Z,47.50
2018-02-20T05:46:43.445Z,46.30
2018-02-20T05:47:43.448Z,48.50
2018-02-20T05:48:43.447Z,48.20
2018-02-20T05:49:43.440Z,46.90
2018-02-20T05:50:43.445Z,45.70
2018-02-20T05:51:43.439Z,48.30
2018-02-20T05:52:43.457Z,45.40
2018-02-20T05:53:43.443Z,46.20
2018-02-20T05:54:43.443Z,47.30
2018-02-20T05:55:43.458Z,47.50
2018-02-20T05:56:43.442Z,46.50
2018-02-20T05:57:43.445Z,47.60
2018-02-20T05:58:43.444Z,47.00
2018-02-20T05:59:43.446Z,48.40
2018-02-20T06:00:43.441Z,48.10
2018-02-20T06:01:43.441Z,46.90
2018-02-20T06:02:43.442Z,48.00
2018-02-20T06:03:43.443Z,48.70
2018-02-20T06:04:43.438Z,49.10
2018-02-20T06:05:43.443Z,49.40
2018-02-20T06:06:43.441Z,48.90
2018-02-20T06:07:43.436Z,49.40
2018-02-20T06:08:43.440Z,49.20
2018-02-20T06:09:43.443Z,48.90
2018-02-20T06:10:43.438Z,48.40
2018-02-20T06:11:43.484Z,49.20
2018-02-20T06:12:43.440Z,47.40
2018-02-20T06:13:43.438Z,48.30
2018-02-20T06:14:43.436Z,48.20
2018-02-20T06:15:43.440Z,48.70
2018-02-20T06:16:43.439Z,49.00
2018-02-20T06:17:43.536Z,48.30
2018-02-20T06:18:43.435Z,47.40
2018-02-20T06:19:43.445Z,49.30
2018-02-20T06:20:43.435Z,49.00
2018-02-20T06:21:43.436Z,51.60
2018-02-20T06:22:43.437Z,47.90
2018-02-20T06:23:43.456Z,49.00
2018-02-20T06:24:43.435Z,49.70
2018-02-20T06:25:43.432Z,48.40
2018-02-20T06:26:43.436Z,49.60
2018-02-20T06:27:43.442Z,48.20
2018-02-20T06:28:43.429Z,48.70
2018-02-20T06:29:43.433Z,48.50
2018-02-20T06:30:43.436Z,48.50
2018-02-20T06:31:43.432Z,47.30
2018-02-20T06:32:43.437Z,48.80
2018-02-20T06:33:43.437Z,49.30
2018-02-20T06:34:43.432Z,48.60
2018-02-20T06:35:43.428Z,48.20
2018-02-20T06:36:43.429Z,48.80
2018-02-20T06:37:43.434Z,49.30
2018-02-20T06:38:43.429Z,49.10
2018-02-20T06:39:43.438Z,47.80
2018-02-20T06:40:43.438Z,47.90
2018-02-20T06:41:43.429Z,48.80
2018-02-20T06:42:43.440Z,48.10
2018-02-20T06:43:43.443Z,47.50
2018-02-20T06:44:43.442Z,46.10
2018-02-20T06:45:43.429Z,46.90
2018-02-20T06:46:43.427Z,48.10
2018-02-20T06:47:43.438Z,47.30
2018-02-20T06:48:43.429Z,46.50
2018-02-20T06:49:43.431Z,48.30
2018-02-20T06:50:43.454Z,48.20
2018-02-20T06:51:43.427Z,47.50
2018-02-20T06:52:44.255Z,46.90
2018-02-20T06:53:43.430Z,47.10
2018-02-20T06:54:43.425Z,45.90
2018-02-20T06:55:43.497Z,46.10
2018-02-20T06:56:43.455Z,46.50
2018-02-20T06:57:43.421Z,47.10
2018-02-20T06:58:43.430Z,45.80
2018-02-20T06:59:43.438Z,47.40
2018-02-20T07:00:43.449Z,45.80
2018-02-20T07:01:43.424Z,46.50
2018-02-20T07:02:43.424Z,46.40
2018-02-20T07:03:43.427Z,46.20
2018-02-20T07:04:43.432Z,46.90
2018-02-20T07:05:43.419Z,45.00
2018-02-20T07:06:43.425Z,45.00
2018-02-20T07:07:43.418Z,46.30
2018-02-20T07:08:43.428Z,45.30
2018-02-20T07:09:43.423Z,46.90
2018-02-20T07:10:43.429Z,47.60
2018-02-20T07:11:43.423Z,45.50
2018-02-20T07:12:43.426Z,47.00
2018-02-20T07:13:43.427Z,46.20
2018-02-20T07:14:43.448Z,46.30
2018-02-20T07:15:43.426Z,45.50
2018-02-20T07:16:43.426Z,46.30
2018-02-20T07:17:43.424Z,46.20
2018-02-20T07:18:43.425Z,45.30
2018-02-20T07:19:43.608Z,47.00
2018-02-20T07:20:43.425Z,45.70
2018-02-20T07:21:43.425Z,47.80
2018-02-20T07:22:43.423Z,48.10
2018-02-20T07:23:43.423Z,47.20
2018-02-20T07:24:43.430Z,48.00
2018-02-20T07:25:43.427Z,46.50
2018-02-20T07:26:43.427Z,47.80
2018-02-20T07:27:43.430Z,48.00
2018-02-20T07:28:43.492Z,46.70
2018-02-20T07:29:43.425Z,47.10
2018-02-20T07:30:43.427Z,47.00
2018-02-20T07:31:43.426Z,47.30
2018-02-20T07:32:43.429Z,46.00
2018-02-20T07:33:43.426Z,46.30
2018-02-20T07:34:43.436Z,46.30
2018-02-20T07:35:43.427Z,44.70
2018-02-20T07:36:43.431Z,46.10
2018-02-20T07:37:43.425Z,46.50
2018-02-20T07:38:43.428Z,47.70
2018-02-20T07:39:43.430Z,48.10
2018-02-20T07:40:43.428Z,48.10
2018-02-20T07:41:43.434Z,47.60
2018-02-20T07:42:43.431Z,45.00
2018-02-20T07:43:43.429Z,46.30
2018-02-20T07:44:43.440Z,46.10
2018-02-20T07:45:43.462Z,46.30
2018-02-20T07:46:43.489Z,46.40
2018-02-20T07:47:43.431Z,44.90
2018-02-20T07:48:43.432Z,46.90
2018-02-20T07:49:43.442Z,45.40
2018-02-20T07:50:43.437Z,46.00
2018-02-20T07:51:43.439Z,46.60
2018-02-20T07:52:43.433Z,45.60
2018-02-20T07:53:43.447Z,46.80
2018-02-20T07:54:43.440Z,45.40
2018-02-20T07:55:43.436Z,46.80
2018-02-20T07:56:43.440Z,45.90
2018-02-20T07:57:43.441Z,46.60
2018-02-20T07:58:43.440Z,46.50
2018-02-20T07:59:43.437Z,46.80
2018-02-20T08:00:43.447Z,45.30
2018-02-20T08:01:43.442Z,47.10
2018-02-20T08:02:43.446Z,45.50
2018-02-20T08:03:43.455Z,45.90
2018-02-20T08:04:43.509Z,44.80
2018-02-20T08:05:43.447Z,45.70
2018-02-20T08:06:43.497Z,45.90
2018-02-20T08:07:43.452Z,45.10
2018-02-20T08:08:43.454Z,45.30
2018-02-20T08:09:43.451Z,45.70
2018-02-20T08:10:43.453Z,45.60
2018-02-20T08:11:43.459Z,44.80
2018-02-20T08:12:43.465Z,43.80
2018-02-20T08:13:43.453Z,43.40
2018-02-20T08:14:43.494Z,43.60
2018-02-20T08:15:43.466Z,41.80
2018-02-20T08:16:43.467Z,41.90
2018-02-20T08:17:43.470Z,41.80
2018-02-20T08:18:43.468Z,39.10
2018-02-20T08:19:43.478Z,40.50
2018-02-20T08:20:43.478Z,39.80
2018-02-20T08:21:43.488Z,40.10
2018-02-20T08:22:43.485Z,38.60
2018-02-20T08:23:43.496Z,38.90
2018-02-20T08:24:43.493Z,38.50
2018-02-20T08:25:43.502Z,37.90
2018-02-20T08:26:43.507Z,36.90
2018-02-20T08:27:43.520Z,37.10
2018-02-20T08:28:43.513Z,38.90
2018-02-20T08:29:43.545Z,37.20
2018-02-20T08:30:43.528Z,36.40
2018-02-20T08:31:43.533Z,37.10
2018-02-20T08:32:43.538Z,38.20
2018-02-20T08:33:43.546Z,37.00
2018-02-20T08:34:43.556Z,37.90
2018-02-20T08:35:43.558Z,37.60
2018-02-20T08:36:43.561Z,36.90
2018-02-20T08:37:43.573Z,36.50
2018-02-20T08:38:43.583Z,36.10
2018-02-20T08:39:43.599Z,34.80
2018-02-20T08:40:43.589Z,36.00
2018-02-20T08:41:43.602Z,35.60
2018-02-20T08:42:43.606Z,35.80
2018-02-20T08:43:43.615Z,36.30
2018-02-20T08:44:43.623Z,35.60
2018-02-20T08:45:43.628Z,35.50
2018-02-20T08:46:43.636Z,34.30
2018-02-20T08:47:43.647Z,36.30
2018-02-20T08:48:43.659Z,35.80
2018-02-20T08:49:43.665Z,34.90
2018-02-20T08:50:43.681Z,35.00
2018-02-20T08:51:43.687Z,35.00
2018-02-20T08:52:43.688Z,34.40
2018-02-20T08:53:43.747Z,34.40
2018-02-20T08:54:43.723Z,35.40
2018-02-20T08:55:43.757Z,34.00
2018-02-20T08:56:43.729Z,34.40
2018-02-20T08:57:43.740Z,33.90
2018-02-20T08:58:43.747Z,33.80
2018-02-20T08:59:43.753Z,34.60
2018-02-20T09:00:43.766Z,34.90
2018-02-20T09:01:43.788Z,33.00
2018-02-20T09:02:43.792Z,33.00
2018-02-20T09:03:43.795Z,33.50
2018-02-20T09:04:43.803Z,34.80
2018-02-20T09:05:43.818Z,34.30
2018-02-20T09:06:43.829Z,34.50
2018-02-20T09:07:43.834Z,32.50
2018-02-20T09:08:43.850Z,32.50
2018-02-20T09:09:43.855Z,34.30
2018-02-20T09:10:43.865Z,32.90
2018-02-20T09:11:43.876Z,33.80
2018-02-20T09:12:43.890Z,33.40
2018-02-20T09:13:43.897Z,34.00
2018-02-20T09:14:43.910Z,33.70
2018-02-20T09:15:43.916Z,34.40
2018-02-20T09:16:43.935Z,32.50
2018-02-20T09:17:43.939Z,33.60
2018-02-20T09:18:43.952Z,32.90
2018-02-20T09:19:43.959Z,33.10
2018-02-20T09:20:43.971Z,33.20
2018-02-20T09:21:43.982Z,33.20
2018-02-20T09:22:43.992Z,32.20
2018-02-20T09:23:44.010Z,31.50
2018-02-20T09:24:44.020Z,33.30
2018-02-20T09:25:44.029Z,32.50
2018-02-20T09:26:44.034Z,34.10
2018-02-20T09:27:44.051Z,32.10
2018-02-20T09:28:44.054Z,32.70
2018-02-20T09:29:44.071Z,32.60
2018-02-20T09:30:44.073Z,33.30
2018-02-20T09:31:44.090Z,33.20
2018-02-20T09:32:44.098Z,32.30
2018-02-20T09:33:44.113Z,33.20
2018-02-20T09:34:44.120Z,33.10
2018-02-20T09:35:44.140Z,33.30
2018-02-20T09:36:44.145Z,32.10
2018-02-20T09:37:44.162Z,33.00
2018-02-20T09:38:44.166Z,32.40
2018-02-20T09:39:44.217Z,33.40
2018-02-20T09:40:44.189Z,31.50
2018-02-20T09:41:44.204Z,34.10
2018-02-20T09:42:44.213Z,33.20
2018-02-20T09:43:44.223Z,32.10
2018-02-20T09:44:44.233Z,32.90
2018-02-20T09:45:44.249Z,32.70
2018-02-20T09:46:44.265Z,32.30
2018-02-20T09:47:44.268Z,32.20
2018-02-20T09:48:44.280Z,32.00
2018-02-20T09:49:44.299Z,33.80
2018-02-20T09:50:44.307Z,30.10
2018-02-20T09:51:44.317Z,31.30
2018-02-20T09:52:44.327Z,31.20
2018-02-20T09:53:44.341Z,32.40
2018-02-20T09:54:44.346Z,31.40
2018-02-20T09:55:44.370Z,32.70
2018-02-20T09:56:44.377Z,32.50
2018-02-20T09:57:44.386Z,30.60
2018-02-20T09:58:44.403Z,32.90
2018-02-20T09:59:44.414Z,32.50
2018-02-20T10:00:44.424Z,32.20
2018-02-20T10:01:44.435Z,31.50
2018-02-20T10:02:44.445Z,33.00
2018-02-20T10:03:44.457Z,31.70
2018-02-20T10:04:44.472Z,31.00
2018-02-20T10:05:44.483Z,31.90
2018-02-20T10:06:44.492Z,32.50
2018-02-20T10:07:44.510Z,33.10
2018-02-20T10:08:44.521Z,32.90
2018-02-20T10:09:44.529Z,31.50
2018-02-20T10:10:44.543Z,31.00
2018-02-20T10:11:44.549Z,32.10
2018-02-20T10:12:44.565Z,31.20
2018-02-20T10:13:44.576Z,31.80
2018-02-20T10:14:44.586Z,31.70
2018-02-20T10:15:44.596Z,30.30
2018-02-20T10:16:44.614Z,30.40
2018-02-20T10:17:44.625Z,30.40
2018-02-20T10:18:44.639Z,32.10
2018-02-20T10:19:44.648Z,32.70
2018-02-20T10:20:44.654Z,31.80
2018-02-20T10:21:44.669Z,33.00
2018-02-20T10:22:44.685Z,32.20
2018-02-20T10:23:44.689Z,32.50
2018-02-20T10:24:44.707Z,34.20
2018-02-20T10:25:44.715Z,32.90
2018-02-20T10:26:44.730Z,33.00
2018-02-20T10:27:44.737Z,32.40
2018-02-20T10:28:44.812Z,33.00
2018-02-20T10:29:44.801Z,34.30
2018-02-20T10:30:44.771Z,34.50
2018-02-20T10:31:44.780Z,34.50
2018-02-20T10:32:44.787Z,33.50
2018-02-20T10:33:44.801Z,33.40
2018-02-20T10:34:44.811Z,33.60
2018-02-20T10:35:44.819Z,33.70
2018-02-20T10:36:44.826Z,33.70
2018-02-20T10:37:44.839Z,32.40
2018-02-20T10:38:44.849Z,33.20
2018-02-20T10:39:44.856Z,29.80
2018-02-20T10:40:44.867Z,31.10
2018-02-20T10:41:44.876Z,31.00
2018-02-20T10:42:44.886Z,30.20
2018-02-20T10:43:44.900Z,30.80
2018-02-20T10:44:44.916Z,29.90
2018-02-20T10:45:44.914Z,29.40
2018-02-20T10:46:44.931Z,28.20
2018-02-20T10:47:44.932Z,28.70
2018-02-20T10:48:44.944Z,28.70
2018-02-20T10:49:44.947Z,27.40
2018-02-20T10:50:44.960Z,29.90
2018-02-20T10:51:44.965Z,29.60
2018-02-20T10:52:44.978Z,29.90
2018-02-20T10:53:44.983Z,31.70
2018-02-20T10:54:44.992Z,31.70
2018-02-20T10:55:45.006Z,30.80
2018-02-20T10:56:45.012Z,30.70
2018-02-20T10:57:45.022Z,31.60
2018-02-20T10:58:45.024Z,31.70
2018-02-20T10:59:45.038Z,31.70
2018-02-20T11:00:45.038Z,32.40
2018-02-20T11:01:45.057Z,32.20
2018-02-20T11:02:45.058Z,33.30
2018-02-20T11:03:45.065Z,30.50
2018-02-20T11:04:45.078Z,31.30
2018-02-20T11:05:45.077Z,32.40
2018-02-20T11:06:45.096Z,30.60
2018-02-20T11:07:45.102Z,31.50
2018-02-20T11:08:45.109Z,32.90
2018-02-20T11:09:45.110Z,32.70
2018-02-20T11:10:45.116Z,33.30
2018-02-20T11:11:45.121Z,32.50
2018-02-20T11:12:45.126Z,33.40
2018-02-20T11:13:45.134Z,33.20
2018-02-20T11:14:45.143Z,33.00
2018-02-20T11:15:45.148Z,33.20
2018-02-20T11:16:45.155Z,32.00
2018-02-20T11:17:45.159Z,33.00
2018-02-20T11:18:45.167Z,32.40
2018-02-20T11:19:45.171Z,39.70
2018-02-20T11:20:45.180Z,34.30
2018-02-20T11:21:45.185Z,32.50
2018-02-20T11:22:45.192Z,32.70
2018-02-20T11:23:45.197Z,32.80
2018-02-20T11:24:45.201Z,33.90
2018-02-20T11:25:45.218Z,33.70
2018-02-20T11:26:45.224Z,31.80
2018-02-20T11:27:45.238Z,35.40
2018-02-20T11:28:45.229Z,33.00
2018-02-20T11:29:45.239Z,32.40
2018-02-20T11:30:45.250Z,33.20
2018-02-20T11:31:45.253Z,32.30
2018-02-20T11:32:45.264Z,32.80
2018-02-20T11:33:45.270Z,32.10
2018-02-20T11:34:45.272Z,33.60
2018-02-20T11:35:45.284Z,32.50
2018-02-20T11:36:45.283Z,32.80
2018-02-20T11:37:45.299Z,33.90
2018-02-20T11:38:45.299Z,33.90
2018-02-20T11:39:45.310Z,34.50
2018-02-20T11:40:45.320Z,34.80
2018-02-20T11:41:45.328Z,34.40
2018-02-20T11:42:45.355Z,34.50
2018-02-20T11:43:45.345Z,34.10
2018-02-20T11:44:45.337Z,34.30
2018-02-20T11:45:45.355Z,32.60
2018-02-20T11:46:45.354Z,34.40
2018-02-20T11:47:45.361Z,33.60
2018-02-20T11:48:45.366Z,35.00
2018-02-20T11:49:45.375Z,32.90
2018-02-20T11:50:45.382Z,35.00
2018-02-20T11:51:45.401Z,33.00
2018-02-20T11:52:45.403Z,32.70
2018-02-20T11:53:45.405Z,31.90
2018-02-20T11:54:45.412Z,31.10
2018-02-20T11:55:45.425Z,31.40
2018-02-20T11:56:45.420Z,32.40
2018-02-20T11:57:45.434Z,32.10
2018-02-20T11:58:45.443Z,34.30
2018-02-20T11:59:45.449Z,31.90
2018-02-20T12:00:45.450Z,31.40
2018-02-20T12:01:45.454Z,31.60
2018-02-20T12:02:45.461Z,30.60
2018-02-20T12:03:45.468Z,32.00
2018-02-20T12:04:45.473Z,30.30
2018-02-20T12:05:45.484Z,30.60
2018-02-20T12:06:45.490Z,30.30
2018-02-20T12:07:45.499Z,31.50
2018-02-20T12:08:45.499Z,29.30
2018-02-20T12:09:45.513Z,31.20
2018-02-20T12:10:45.513Z,29.60
2018-02-20T12:11:45.524Z,29.00
2018-02-20T12:12:45.525Z,30.30
2018-02-20T12:13:45.535Z,29.40
2018-02-20T12:14:45.536Z,30.60
2018-02-20T12:15:45.546Z,30.50
2018-02-20T12:16:45.547Z,30.60
2018-02-20T12:17:45.559Z,31.10
2018-02-20T12:18:45.566Z,30.60
2018-02-20T12:19:45.560Z,30.50
2018-02-20T12:20:45.572Z,30.60
2018-02-20T12:21:45.582Z,31.20
2018-02-20T12:22:45.588Z,28.30
2018-02-20T12:23:45.583Z,30.80
2018-02-20T12:24:45.593Z,29.50
2018-02-20T12:25:45.602Z,29.60
2018-02-20T12:26:45.610Z,29.20
2018-02-20T12:27:45.606Z,29.40
2018-02-20T12:28:45.614Z,29.00
2018-02-20T12:29:45.624Z,28.70
2018-02-20T12:30:45.636Z,29.30
2018-02-20T12:31:45.637Z,30.10
2018-02-20T12:32:45.636Z,29.40
2018-02-20T12:33:45.647Z,29.90
2018-02-20T12:34:45.847Z,28.50
2018-02-20T12:35:45.660Z,28.50
2018-02-20T12:36:45.732Z,29.00
2018-02-20T12:37:45.671Z,29.10
2018-02-20T12:38:45.669Z,28.40
2018-02-20T12:39:45.675Z,30.20
2018-02-20T12:40:45.677Z,30.00
2018-02-20T12:41:45.689Z,28.70
2018-02-20T12:42:45.702Z,29.40
2018-02-20T12:43:45.691Z,30.10
2018-02-20T12:44:45.700Z,30.20
2018-02-20T12:45:45.704Z,28.80
2018-02-20T12:46:45.722Z,28.80
2018-02-20T12:47:45.761Z,29.60
2018-02-20T12:48:45.726Z,30.80
2018-02-20T12:49:45.723Z,30.60
2018-02-20T12:50:45.729Z,29.70
2018-02-20T12:51:45.729Z,30.50
2018-02-20T12:52:45.738Z,29.50